createdAt,value
2018-04-28T00:00:17.870Z,100610.63
2018-04-28T00:01:56.283Z,100679.38
2018-04-28T00:03:32.843Z,100702.44
2018-04-28T00:05:09.353Z,100703.37
2018-04-28T00:06:46.415Z,100652.88
2018-04-28T00:08:23.369Z,100653.64
2018-04-28T00:10:00.019Z,100695.81
2018-04-28T00:11:40.105Z,100778.86
2018-04-28T00:13:17.217Z,100765.92
2018-04-28T00:14:57.014Z,100631.44
2018-04-28T00:16:34.493Z,100599.57
2018-04-28T00:18:11.030Z,100549.91
2018-04-28T00:19:48.592Z,100473.61
2018-04-28T00:21:26.902Z,100470.92
2018-04-28T00:23:05.280Z,100528.16
2018-04-28T00:24:41.864Z,100579.16
2018-04-28T00:26:18.971Z,100671.37
2018-04-28T00:28:00.376Z,100667.45
2018-04-28T00:29:37.242Z,100700.67
2018-04-28T00:31:15.191Z,100674.92
2018-04-28T00:32:52.563Z,100630.14
2018-04-28T00:34:29.181Z,100683.38
2018-04-28T00:36:07.083Z,100672.72
2018-04-28T00:37:46.569Z,100741.97
2018-04-28T00:39:24.518Z,100744.61
2018-04-28T00:41:01.861Z,100798.39
2018-04-28T00:42:38.490Z,100799.72
2018-04-28T00:44:15.856Z,100768.20
2018-04-28T00:45:53.353Z,100733.55
2018-04-28T00:47:34.877Z,100726.92
2018-04-28T00:49:12.781Z,100614.64
2018-04-28T00:50:50.031Z,100556.48
2018-04-28T00:52:27.492Z,100503.75
2018-04-28T00:54:06.623Z,100526.87
2018-04-28T00:55:43.334Z,100539.21
2018-04-28T00:57:24.394Z,100529.53
2018-04-28T00:59:01.529Z,100543.70
2018-04-28T01:00:38.496Z,100581.79
2018-04-28T01:02:16.161Z,100728.70
2018-04-28T01:03:53.314Z,100820.59
2018-04-28T01:05:30.369Z,100765.90
2018-04-28T01:07:06.885Z,100723.36
2018-04-28T01:08:44.647Z,100734.42
2018-04-28T01:10:21.503Z,100706.47
2018-04-28T01:11:59.814Z,100642.56
2018-04-28T01:13:36.454Z,100682.97
2018-04-28T01:15:14.994Z,100699.36
2018-04-28T01:16:51.910Z,100708.25
2018-04-28T01:18:28.978Z,100724.65
2018-04-28T01:20:06.145Z,100688.30
2018-04-28T01:21:42.963Z,100618.59
2018-04-28T01:23:19.947Z,100634.63
2018-04-28T01:24:57.467Z,100664.37
2018-04-28T01:26:39.282Z,100702.95
2018-04-28T01:28:16.253Z,100745.08
2018-04-28T01:29:52.865Z,100732.67
2018-04-28T01:31:30.037Z,100707.41
2018-04-28T01:33:06.961Z,100616.83
2018-04-28T01:34:43.546Z,100560.52
2018-04-28T01:36:20.370Z,100555.70
2018-04-28T01:38:04.807Z,100470.56
2018-04-28T01:39:42.143Z,100499.36
2018-04-28T01:41:18.770Z,100481.15
2018-04-28T01:42:56.184Z,100540.61
2018-04-28T01:44:33.707Z,100632.84
2018-04-28T01:46:10.384Z,100537.56
2018-04-28T01:47:52.752Z,100546.73
2018-04-28T01:49:29.269Z,100565.44
2018-04-28T01:51:06.360Z,100655.04
2018-04-28T01:52:42.813Z,100698.50
2018-04-28T01:54:20.025Z,100532.63
2018-04-28T01:55:58.732Z,100564.97
2018-04-28T01:57:36.873Z,100573.83
2018-04-28T01:59:13.687Z,100576.96
2018-04-28T02:00:51.209Z,100590.70
2018-04-28T02:02:28.358Z,100562.77
2018-04-28T02:04:05.305Z,100393.45
2018-04-28T02:05:42.151Z,100420.06
2018-04-28T02:07:19.483Z,100424.45
2018-04-28T02:08:58.096Z,100317.30
2018-04-28T02:10:36.645Z,100347.00
2018-04-28T02:12:14.163Z,100433.28
2018-04-28T02:13:50.973Z,100419.09
2018-04-28T02:15:27.928Z,100360.67
2018-04-28T02:17:05.541Z,100371.74
2018-04-28T02:18:42.577Z,100307.95
2018-04-28T02:20:21.051Z,100278.31
2018-04-28T02:21:57.911Z,100380.62
2018-04-28T02:23:34.549Z,100456.83
2018-04-28T02:25:11.997Z,100484.38
2018-04-28T02:26:48.861Z,100541.95
2018-04-28T02:28:28.353Z,100495.81
2018-04-28T02:30:08.558Z,100307.95
2018-04-28T02:31:45.516Z,100307.60
2018-04-28T02:33:22.142Z,100258.38
2018-04-28T02:34:59.425Z,100260.16
2018-04-28T02:36:38.024Z,100251.28
2018-04-28T02:38:16.326Z,100127.79
2018-04-28T02:39:55.675Z,100140.56
2018-04-28T02:41:36.730Z,100206.59
2018-04-28T02:43:13.768Z,100241.99
2018-04-28T02:44:54.357Z,100307.14
2018-04-28T02:46:31.917Z,100281.88
2018-04-28T02:48:08.641Z,100203.06
2018-04-28T02:49:47.207Z,100294.73
2018-04-28T02:51:24.297Z,100313.79
2018-04-28T02:53:08.061Z,100374.45
2018-04-28T02:54:46.871Z,100440.05
2018-04-28T02:56:24.372Z,100400.63
2018-04-28T02:58:01.050Z,100437.80
2018-04-28T02:59:37.698Z,100487.43
2018-04-28T03:01:15.585Z,100525.14
2018-04-28T03:02:52.238Z,100578.80
2018-04-28T03:04:30.348Z,100593.42
2018-04-28T03:06:07.473Z,100539.34
2018-04-28T03:07:45.804Z,100540.66
2018-04-28T03:09:24.677Z,100469.33
2018-04-28T03:11:01.425Z,100345.68
2018-04-28T03:12:37.443Z,100321.33
2018-04-28T03:14:14.920Z,100296.56
2018-04-28T03:15:51.237Z,100298.78
2018-04-28T03:17:28.571Z,100272.13
2018-04-28T03:19:05.631Z,100277.50
2018-04-28T03:20:43.398Z,100271.22
2018-04-28T03:22:19.865Z,100293.88
2018-04-28T03:23:56.808Z,100414.33
2018-04-28T03:25:33.438Z,100512.72
2018-04-28T03:27:10.737Z,100469.30
2018-04-28T03:28:47.527Z,100452.44
2018-04-28T03:30:23.820Z,100499.96
2018-04-28T03:32:00.011Z,100582.83
2018-04-28T03:33:36.683Z,100598.28
2018-04-28T03:35:13.046Z,100548.20
2018-04-28T03:36:50.011Z,100344.37
2018-04-28T03:38:26.538Z,100327.48
2018-04-28T03:40:03.364Z,100264.13
2018-04-28T03:41:39.710Z,100350.59
2018-04-28T03:43:20.234Z,100402.83
2018-04-28T03:44:56.947Z,100345.68
2018-04-28T03:46:34.789Z,100371.39
2018-04-28T03:48:11.245Z,100405.45
2018-04-28T03:49:47.651Z,100425.88
2018-04-28T03:51:24.017Z,100351.88
2018-04-28T03:53:05.572Z,100316.01
2018-04-28T03:54:42.852Z,100303.19
2018-04-28T03:56:19.218Z,100328.89
2018-04-28T03:58:12.211Z,100385.55
2018-04-28T04:03:50.161Z,100328.02
2018-04-28T04:05:26.761Z,100188.82
2018-04-28T04:07:03.401Z,100171.17
2018-04-28T04:08:39.767Z,100094.66
2018-04-28T04:10:15.964Z,100134.03
2018-04-28T04:11:52.573Z,100153.95
2018-04-28T04:13:37.311Z,100168.95
2018-04-28T04:15:16.069Z,100188.03
2018-04-28T04:16:52.517Z,100200.41
2018-04-28T04:18:29.901Z,100191.12
2018-04-28T04:20:06.874Z,100078.70
2018-04-28T04:21:43.671Z,100065.95
2018-04-28T04:23:20.299Z,100130.06
2018-04-28T04:24:56.634Z,100117.26
2018-04-28T04:26:33.688Z,99932.49
2018-04-28T04:28:11.105Z,100007.63
2018-04-28T04:29:47.511Z,100064.15
2018-04-28T04:31:24.146Z,100114.19
2018-04-28T04:33:00.852Z,100134.98
2018-04-28T04:34:40.446Z,100121.23
2018-04-28T04:36:17.013Z,100092.03
2018-04-28T04:37:53.647Z,100072.14
2018-04-28T04:39:30.158Z,100038.11
2018-04-28T04:41:07.107Z,100025.31
2018-04-28T04:42:49.909Z,100021.78
2018-04-28T04:44:27.189Z,100011.12
2018-04-28T04:46:04.624Z,100063.27
2018-04-28T04:47:41.734Z,100079.17
2018-04-28T04:49:18.067Z,100104.77
2018-04-28T04:50:56.138Z,100089.34
2018-04-28T04:52:32.566Z,100181.41
2018-04-28T04:54:10.040Z,100245.58
2018-04-28T04:55:46.222Z,100287.19
2018-04-28T04:57:22.498Z,100319.13
2018-04-28T04:59:03.066Z,100348.80
2018-04-28T05:00:39.731Z,100334.58
2018-04-28T05:02:16.128Z,100320.48
2018-04-28T05:03:52.737Z,100350.13
2018-04-28T05:05:29.893Z,100324.47
2018-04-28T05:07:07.037Z,100362.59
2018-04-28T05:08:43.215Z,100395.75
2018-04-28T05:10:19.673Z,100435.66
2018-04-28T05:11:56.280Z,100460.50
2018-04-28T05:13:33.360Z,100488.44
2018-04-28T05:15:18.513Z,100520.37
2018-04-28T05:16:57.105Z,100546.98
2018-04-28T05:18:33.443Z,100498.17
2018-04-28T05:20:14.624Z,100486.69
2018-04-28T05:21:50.752Z,100453.87
2018-04-28T05:23:27.306Z,100467.58
2018-04-28T05:25:03.476Z,100455.19
2018-04-28T05:26:40.301Z,100475.17
2018-04-28T05:28:26.620Z,100493.78
2018-04-28T05:30:05.070Z,100524.81
2018-04-28T05:31:41.723Z,100570.56
2018-04-28T05:33:22.416Z,100555.45
2018-04-28T05:34:58.664Z,100573.64
2018-04-28T05:36:34.905Z,100617.95
2018-04-28T05:38:19.962Z,100603.30
2018-04-28T05:40:00.142Z,100602.02
2018-04-28T05:41:40.636Z,100600.30
2018-04-28T05:43:18.418Z,100517.29
2018-04-28T05:44:55.507Z,100465.84
2018-04-28T05:46:32.632Z,100409.56
2018-04-28T05:48:09.583Z,100378.05
2018-04-28T05:49:49.014Z,100402.03
2018-04-28T05:51:34.744Z,100406.03
2018-04-28T05:53:11.917Z,100411.87
2018-04-28T05:54:49.673Z,100417.09
2018-04-28T05:56:26.173Z,100414.50
2018-04-28T05:58:03.030Z,100440.59
2018-04-28T05:59:42.888Z,100429.52
2018-04-28T06:01:31.963Z,100463.19
2018-04-28T06:03:14.956Z,100492.59
2018-04-28T06:04:51.646Z,100508.91
2018-04-28T06:06:28.149Z,100478.32
2018-04-28T06:08:12.680Z,100434.87
2018-04-28T06:09:49.006Z,100458.80
2018-04-28T06:11:26.287Z,100458.78
2018-04-28T06:13:07.847Z,100508.05
2018-04-28T06:14:50.429Z,100525.77
2018-04-28T06:16:26.838Z,100519.13
2018-04-28T06:18:04.093Z,100480.13
2018-04-28T06:19:41.762Z,100407.40
2018-04-28T06:21:18.935Z,100408.74
2018-04-28T06:22:55.344Z,100378.12
2018-04-28T06:24:32.087Z,100367.50
2018-04-28T06:26:08.190Z,100394.95
2018-04-28T06:27:44.353Z,100327.22
2018-04-28T06:29:20.984Z,100312.64
2018-04-28T06:30:57.249Z,100243.45
2018-04-28T06:32:33.442Z,100285.11
2018-04-28T06:34:10.360Z,100350.30
2018-04-28T06:35:46.876Z,100315.25
2018-04-28T06:37:23.839Z,100255.86
2018-04-28T06:39:03.561Z,100206.33
2018-04-28T06:40:39.782Z,100114.31
2018-04-28T06:42:16.349Z,100040.91
2018-04-28T06:43:52.779Z,100049.75
2018-04-28T06:45:28.871Z,100044.88
2018-04-28T06:47:05.005Z,100105.47
2018-04-28T06:48:42.453Z,100164.69
2018-04-28T06:50:18.562Z,100214.70
2018-04-28T06:51:54.562Z,100290.92
2018-04-28T06:53:30.629Z,100334.81
2018-04-28T06:55:07.970Z,100353.80
2018-04-28T06:56:45.853Z,100352.04
2018-04-28T06:58:22.710Z,100343.19
2018-04-28T06:59:59.123Z,100394.19
2018-04-28T07:01:35.870Z,100460.17
2018-04-28T07:03:12.248Z,100504.95
2018-04-28T07:04:48.691Z,100438.44
2018-04-28T07:06:24.863Z,100398.61
2018-04-28T07:08:01.678Z,100420.75
2018-04-28T07:09:37.646Z,100482.84
2018-04-28T07:11:17.546Z,100554.67
2018-04-28T07:12:53.747Z,100580.41
2018-04-28T07:14:29.923Z,100621.19
2018-04-28T07:16:08.026Z,100677.52
2018-04-28T07:17:45.130Z,100707.64
2018-04-28T07:19:25.266Z,100683.28
2018-04-28T07:21:01.785Z,100668.19
2018-04-28T07:22:42.663Z,100633.63
2018-04-28T07:24:19.047Z,100536.05
2018-04-28T07:25:55.503Z,100447.37
2018-04-28T07:27:31.678Z,100505.00
2018-04-28T07:29:07.878Z,100502.31
2018-04-28T07:30:44.258Z,100508.13
2018-04-28T07:32:20.659Z,100483.72
2018-04-28T07:33:57.801Z,100559.56
2018-04-28T07:35:33.894Z,100609.64
2018-04-28T07:37:11.700Z,100665.11
2018-04-28T07:38:48.567Z,100678.89
2018-04-28T07:40:28.912Z,100743.69
2018-04-28T07:42:05.080Z,100784.97
2018-04-28T07:43:42.351Z,100818.30
2018-04-28T07:45:19.358Z,100848.08
2018-04-28T07:46:56.759Z,100783.65
2018-04-28T07:48:32.997Z,100731.30
2018-04-28T07:50:09.747Z,100695.33
2018-04-28T07:51:46.718Z,100641.16
2018-04-28T07:53:23.576Z,100703.35
2018-04-28T07:55:00.495Z,100758.00
2018-04-28T07:56:37.084Z,100779.17
2018-04-28T07:58:13.233Z,100834.31
2018-04-28T07:59:49.188Z,100890.34
2018-04-28T08:01:25.541Z,100878.25
2018-04-28T08:03:02.389Z,100928.50
2018-04-28T08:04:38.500Z,100975.63
2018-04-28T08:06:14.699Z,100936.06
2018-04-28T08:07:51.644Z,100902.25
2018-04-28T08:09:28.765Z,100901.92
2018-04-28T08:11:04.958Z,100948.05
2018-04-28T08:12:41.147Z,100962.71
2018-04-28T08:14:18.045Z,100936.14
2018-04-28T08:15:54.905Z,101015.70
2018-04-28T08:17:31.918Z,101122.92
2018-04-28T08:19:08.167Z,101154.99
2018-04-28T08:20:44.434Z,101062.80
2018-04-28T08:22:21.020Z,100995.27
2018-04-28T08:23:57.261Z,101079.36
2018-04-28T08:25:33.514Z,101154.99
2018-04-28T08:27:09.788Z,101229.80
2018-04-28T08:28:46.627Z,101199.91
2018-04-28T08:30:24.709Z,101127.83
2018-04-28T08:32:01.154Z,101110.51
2018-04-28T08:33:37.322Z,101096.77
2018-04-28T08:35:14.008Z,101138.56
2018-04-28T08:36:50.969Z,101179.00
2018-04-28T08:38:27.209Z,101222.20
2018-04-28T08:40:04.310Z,101277.91
2018-04-28T08:41:41.100Z,101431.13
2018-04-28T08:43:17.299Z,101649.33
2018-04-28T08:44:53.470Z,101679.23
2018-04-28T08:46:29.700Z,101710.48
2018-04-28T08:48:06.752Z,101752.48
2018-04-28T08:49:42.740Z,101748.94
2018-04-28T08:51:18.834Z,101633.25
2018-04-28T08:52:55.100Z,101605.69
2018-04-28T08:54:31.612Z,101452.20
2018-04-28T08:56:08.081Z,101531.16
2018-04-28T08:57:45.197Z,101654.27
2018-04-28T08:59:22.094Z,101750.75
2018-04-28T09:00:59.282Z,101722.63
2018-04-28T09:02:36.372Z,101543.19
2018-04-28T09:04:13.177Z,101548.13
2018-04-28T09:05:49.255Z,101550.34
2018-04-28T09:07:27.801Z,101562.00
2018-04-28T09:09:03.917Z,101481.59
2018-04-28T09:10:40.397Z,101489.23
2018-04-28T09:12:18.254Z,101340.34
2018-04-28T09:13:55.231Z,101289.98
2018-04-28T09:15:31.949Z,101278.81
2018-04-28T09:17:08.226Z,101258.80
2018-04-28T09:18:44.591Z,101193.80
2018-04-28T09:20:21.362Z,101116.39
2018-04-28T09:21:58.301Z,101097.70
2018-04-28T09:23:34.915Z,101090.13
2018-04-28T09:25:11.258Z,101154.59
2018-04-28T09:26:48.180Z,101175.05
2018-04-28T09:28:24.481Z,101187.09
2018-04-28T09:30:02.880Z,101181.28
2018-04-28T09:31:39.682Z,101233.81
2018-04-28T09:33:16.078Z,101072.34
2018-04-28T09:34:52.348Z,101142.64
2018-04-28T09:36:28.734Z,101121.29
2018-04-28T09:38:05.552Z,101206.69
2018-04-28T09:39:42.240Z,101213.36
2018-04-28T09:41:18.622Z,101180.39
2018-04-28T09:42:55.037Z,101135.47
2018-04-28T09:44:31.501Z,101090.53
2018-04-28T09:46:08.325Z,101179.12
2018-04-28T09:47:45.533Z,101249.84
2018-04-28T09:49:21.886Z,101322.02
2018-04-28T09:50:58.191Z,101342.95
2018-04-28T09:54:12.075Z,101257.91
2018-04-28T09:55:48.393Z,101360.81
2018-04-28T09:57:24.996Z,101345.23
2018-04-28T09:59:02.095Z,101318.07
2018-04-28T10:00:42.627Z,101401.39
2018-04-28T10:02:19.042Z,101422.32
2018-04-28T10:03:55.400Z,101466.91
2018-04-28T10:05:33.065Z,101392.91
2018-04-28T10:07:09.375Z,101474.45
2018-04-28T10:08:45.698Z,101567.28
2018-04-28T10:10:22.105Z,101600.23
2018-04-28T10:11:59.726Z,101604.28
2018-04-28T10:13:36.046Z,101656.52
2018-04-28T10:15:15.703Z,101644.47
2018-04-28T10:16:52.833Z,101574.41
2018-04-28T10:18:29.410Z,101509.34
2018-04-28T10:20:06.213Z,101392.46
2018-04-28T10:21:42.542Z,101342.13
2018-04-28T10:23:18.877Z,101313.61
2018-04-28T10:24:55.605Z,101299.78
2018-04-28T10:26:32.007Z,101257.49
2018-04-28T10:28:08.418Z,101203.11
2018-04-28T10:29:46.153Z,101263.70
2018-04-28T10:31:23.185Z,101255.26
2018-04-28T10:33:00.244Z,101420.13
2018-04-28T10:34:36.560Z,101522.69
2018-04-28T10:36:13.801Z,101580.25
2018-04-28T10:37:50.809Z,101535.16
2018-04-28T10:39:27.265Z,101451.30
2018-04-28T10:41:04.604Z,101465.55
2018-04-28T10:42:40.927Z,101413.39
2018-04-28T10:44:17.757Z,101332.30
2018-04-28T10:45:54.321Z,101315.37
2018-04-28T10:47:30.848Z,101394.72
2018-04-28T10:49:07.165Z,101371.53
2018-04-28T10:50:43.998Z,101466.44
2018-04-28T10:52:20.341Z,101603.91
2018-04-28T10:53:56.747Z,101638.69
2018-04-28T10:55:33.042Z,101574.89
2018-04-28T10:57:09.983Z,101528.93
2018-04-28T10:58:46.321Z,101456.17
2018-04-28T11:00:23.350Z,101558.41
2018-04-28T11:01:59.936Z,101577.17
2018-04-28T11:03:36.575Z,101636.90
2018-04-28T11:05:12.867Z,101532.53
2018-04-28T11:06:49.316Z,101531.65
2018-04-28T11:08:27.668Z,101542.30
2018-04-28T11:10:05.781Z,101578.03
2018-04-28T11:11:42.166Z,101613.67
2018-04-28T11:13:18.584Z,101556.63
2018-04-28T11:14:55.113Z,101624.89
2018-04-28T11:16:32.239Z,101591.83
2018-04-28T11:18:09.334Z,101517.78
2018-04-28T11:19:45.804Z,101462.88
2018-04-28T11:21:23.106Z,101445.06
2018-04-28T11:22:59.897Z,101444.59
2018-04-28T11:24:37.951Z,101481.66
2018-04-28T11:26:14.258Z,101455.34
2018-04-28T11:27:50.576Z,101500.41
2018-04-28T11:29:27.335Z,101448.64
2018-04-28T11:31:04.611Z,101563.27
2018-04-28T11:32:40.918Z,101624.42
2018-04-28T11:34:17.338Z,101703.84
2018-04-28T11:35:54.851Z,101703.41
2018-04-28T11:37:31.519Z,101650.23
2018-04-28T11:39:08.306Z,101638.65
2018-04-28T11:40:44.778Z,101604.27
2018-04-28T11:42:24.125Z,101617.25
2018-04-28T11:44:00.700Z,101615.92
2018-04-28T11:45:37.499Z,101637.72
2018-04-28T11:48:48.782Z,101623.08
2018-04-28T11:50:25.287Z,101700.23
2018-04-28T11:52:02.980Z,101759.68
2018-04-28T11:53:42.496Z,101748.11
2018-04-28T11:55:19.544Z,101781.14
2018-04-28T11:56:55.978Z,101823.19
2018-04-28T11:58:32.223Z,101818.62
2018-04-28T12:00:09.266Z,101867.30
2018-04-28T12:01:50.953Z,101949.59
2018-04-28T12:03:28.395Z,101952.70
2018-04-28T12:05:04.855Z,101958.09
2018-04-28T12:06:41.498Z,101931.77
2018-04-28T12:08:18.283Z,101930.42
2018-04-28T12:09:54.596Z,102054.31
2018-04-28T12:11:32.729Z,102183.63
2018-04-28T12:13:09.310Z,102234.20
2018-04-28T12:14:46.243Z,102208.15
2018-04-28T12:16:22.556Z,102216.73
2018-04-28T12:17:59.609Z,102203.30
2018-04-28T12:19:35.982Z,102175.11
2018-04-28T12:21:13.127Z,102120.07
2018-04-28T12:22:50.671Z,102093.20
2018-04-28T12:24:27.440Z,102127.24
2018-04-28T12:26:03.870Z,102122.25
2018-04-28T12:27:40.254Z,102091.37
2018-04-28T12:29:16.656Z,102063.61
2018-04-28T12:32:28.030Z,102036.76
2018-04-28T12:34:04.698Z,102006.83
2018-04-28T12:35:41.265Z,102045.73
2018-04-28T12:37:17.691Z,102050.72
2018-04-28T12:38:55.347Z,102008.12
2018-04-28T12:40:32.261Z,102032.73
2018-04-28T12:42:08.894Z,101917.39
2018-04-28T12:43:45.330Z,101855.30
2018-04-28T12:45:22.181Z,101887.86
2018-04-28T12:46:59.212Z,101986.22
2018-04-28T12:48:35.725Z,102050.69
2018-04-28T12:50:12.754Z,102146.88
2018-04-28T12:51:49.101Z,102136.16
2018-04-28T12:53:25.900Z,102103.04
2018-04-28T12:55:03.077Z,102055.11
2018-04-28T12:56:39.987Z,102058.24
2018-04-28T12:58:16.773Z,101908.89
2018-04-28T12:59:53.705Z,101970.13
2018-04-28T13:01:30.977Z,101934.78
2018-04-28T13:03:07.527Z,101980.37
2018-04-28T13:04:43.985Z,101878.41
2018-04-28T13:06:20.346Z,101740.83
2018-04-28T13:07:56.829Z,101817.26
2018-04-28T13:09:33.943Z,101906.19
2018-04-28T13:11:10.372Z,101860.99
2018-04-28T13:12:47.573Z,101824.82
2018-04-28T13:14:24.717Z,101844.91
2018-04-28T13:16:02.580Z,101882.86
2018-04-28T13:17:39.159Z,101871.23
2018-04-28T13:19:16.259Z,101783.75
2018-04-28T13:20:52.769Z,101865.03
2018-04-28T13:22:29.993Z,101961.12
2018-04-28T13:24:06.536Z,102019.27
2018-04-28T13:25:44.510Z,102113.27
2018-04-28T13:27:20.975Z,102126.64
2018-04-28T13:28:57.449Z,102109.66
2018-04-28T13:30:33.776Z,102053.68
2018-04-28T13:32:11.523Z,102060.00
2018-04-28T13:33:47.944Z,102039.34
2018-04-28T13:35:25.540Z,102070.27
2018-04-28T13:37:02.038Z,102128.89
2018-04-28T13:38:38.895Z,102190.63
2018-04-28T13:40:16.781Z,102177.66
2018-04-28T13:41:53.260Z,102212.56
2018-04-28T13:43:29.705Z,102245.70
2018-04-28T13:45:17.357Z,102238.06
2018-04-28T13:46:53.849Z,102175.43
2018-04-28T13:48:31.179Z,102050.53
2018-04-28T13:50:08.780Z,102056.37
2018-04-28T13:51:45.948Z,102140.03
2018-04-28T13:53:22.502Z,102177.63
2018-04-28T13:54:58.842Z,102161.03
2018-04-28T13:56:36.189Z,102194.19
2018-04-28T13:58:13.650Z,102195.52
2018-04-28T13:59:50.919Z,102183.88
2018-04-28T14:01:27.805Z,102231.77
2018-04-28T14:04:42.410Z,102148.52
2018-04-28T14:06:18.865Z,102102.81
2018-04-28T14:07:56.128Z,102053.64
2018-04-28T14:09:33.311Z,102074.25
2018-04-28T14:11:13.110Z,102134.63
2018-04-28T14:12:49.461Z,102179.34
2018-04-28T14:14:25.868Z,102148.03
2018-04-28T14:16:02.935Z,102173.11
2018-04-28T14:17:39.739Z,102175.31
2018-04-28T14:19:17.147Z,102201.30
2018-04-28T14:20:54.692Z,102232.16
2018-04-28T14:22:31.353Z,102264.91
2018-04-28T14:24:08.197Z,102216.06
2018-04-28T14:25:44.748Z,102139.06
2018-04-28T14:27:21.365Z,102106.81
2018-04-28T14:28:58.900Z,102135.91
2018-04-28T14:30:35.886Z,102089.84
2018-04-28T14:32:15.276Z,102047.78
2018-04-28T14:33:52.334Z,102081.34
2018-04-28T14:35:29.256Z,102050.84
2018-04-28T14:37:06.472Z,102090.69
2018-04-28T14:38:43.789Z,102110.74
2018-04-28T14:40:20.157Z,102116.58
2018-04-28T14:41:57.263Z,102127.36
2018-04-28T14:43:34.534Z,102083.97
2018-04-28T14:45:12.420Z,101993.05
2018-04-28T14:46:49.011Z,102004.74
2018-04-28T14:48:25.314Z,101907.70
2018-04-28T14:50:01.867Z,101954.17
2018-04-28T14:51:38.241Z,102054.40
2018-04-28T14:53:15.403Z,102147.92
2018-04-28T14:54:52.177Z,102116.14
2018-04-28T14:56:29.423Z,102010.11
2018-04-28T14:58:06.199Z,101810.70
2018-04-28T14:59:42.578Z,101759.36
2018-04-28T15:01:19.453Z,101714.66
2018-04-28T15:02:55.933Z,101782.57
2018-04-28T15:04:32.440Z,101838.86
2018-04-28T15:06:08.767Z,101842.88
2018-04-28T15:07:45.116Z,101835.25
2018-04-28T15:09:21.449Z,101905.84
2018-04-28T15:10:58.676Z,101961.70
2018-04-28T15:12:34.994Z,101985.00
2018-04-28T15:14:12.991Z,102003.79
2018-04-28T15:15:49.502Z,101985.85
2018-04-28T15:17:25.822Z,102025.72
2018-04-28T15:19:03.018Z,101988.98
2018-04-28T15:20:39.813Z,101913.38
2018-04-28T15:22:17.129Z,101950.05
2018-04-28T15:23:53.563Z,101990.31
2018-04-28T15:25:29.861Z,102019.42
2018-04-28T15:27:06.483Z,102012.23
2018-04-28T15:28:42.875Z,102001.92
2018-04-28T15:30:20.119Z,102058.30
2018-04-28T15:31:57.226Z,102091.42
2018-04-28T15:33:34.714Z,102125.39
2018-04-28T15:35:11.196Z,102152.72
2018-04-28T15:37:14.305Z,102204.66
2018-04-28T15:38:56.190Z,102213.19
2018-04-28T15:40:34.260Z,102226.16
2018-04-28T15:42:17.003Z,102253.48
2018-04-28T15:43:57.706Z,102092.31
2018-04-28T15:45:35.308Z,101950.50
2018-04-28T15:47:11.993Z,101985.38
2018-04-28T15:48:49.147Z,102087.87
2018-04-28T15:50:25.529Z,102044.91
2018-04-28T15:52:03.165Z,102026.53
2018-04-28T15:53:39.686Z,102131.66
2018-04-28T15:55:16.469Z,102186.73
2018-04-28T15:56:52.980Z,102009.06
2018-04-28T15:58:30.152Z,101980.42
2018-04-28T16:00:08.839Z,102019.40
2018-04-28T16:01:45.874Z,102139.30
2018-04-28T16:03:22.663Z,102209.50
2018-04-28T16:05:00.166Z,102284.39
2018-04-28T16:06:39.330Z,102322.90
2018-04-28T16:08:15.795Z,102300.95
2018-04-28T16:09:52.150Z,102325.61
2018-04-28T16:11:30.439Z,102286.11
2018-04-28T16:13:06.971Z,102209.92
2018-04-28T16:14:43.640Z,102183.50
2018-04-28T16:16:20.369Z,102137.48
2018-04-28T16:17:57.898Z,102107.03
2018-04-28T16:19:35.964Z,102068.95
2018-04-28T16:21:12.462Z,102094.47
2018-04-28T16:22:48.989Z,102114.13
2018-04-28T16:24:25.566Z,102167.44
2018-04-28T16:26:02.063Z,102095.30
2018-04-28T16:27:40.396Z,102086.37
2018-04-28T16:29:18.442Z,102064.47
2018-04-28T16:30:56.030Z,102123.13
2018-04-28T16:32:33.101Z,102181.24
2018-04-28T16:34:09.661Z,102133.79
2018-04-28T16:35:53.159Z,102043.86
2018-04-28T16:37:31.090Z,101971.37
2018-04-28T16:39:08.207Z,101977.67
2018-04-28T16:40:44.596Z,101923.05
2018-04-28T16:42:21.812Z,101932.39
2018-04-28T16:43:58.862Z,101957.52
2018-04-28T16:45:35.303Z,102000.48
2018-04-28T16:47:11.593Z,101991.95
2018-04-28T16:48:48.687Z,102025.06
2018-04-28T16:50:26.687Z,102047.42
2018-04-28T16:52:03.752Z,102006.22
2018-04-28T16:53:41.000Z,101934.73
2018-04-28T16:55:17.364Z,101899.81
2018-04-28T16:56:53.813Z,101813.13
2018-04-28T16:58:30.206Z,101937.78
2018-04-28T17:00:10.697Z,102034.39
2018-04-28T17:01:47.311Z,102054.52
2018-04-28T17:03:24.304Z,102100.59
2018-04-28T17:05:01.552Z,102097.00
2018-04-28T17:06:38.774Z,102092.59
2018-04-28T17:08:20.280Z,101993.25
2018-04-28T17:09:57.087Z,102009.31
2018-04-28T17:11:33.518Z,102014.69
2018-04-28T17:13:10.487Z,102094.31
2018-04-28T17:14:47.942Z,102133.70
2018-04-28T17:16:25.102Z,102172.64
2018-04-28T17:18:01.551Z,102206.72
2018-04-28T17:19:38.206Z,102198.16
2018-04-28T17:21:14.603Z,102135.48
2018-04-28T17:22:51.512Z,102191.44
2018-04-28T17:24:28.218Z,102245.17
2018-04-28T17:26:04.577Z,102246.95
2018-04-28T17:27:42.713Z,102207.56
2018-04-28T17:29:19.161Z,102177.10
2018-04-28T17:30:59.686Z,102186.02
2018-04-28T17:32:36.328Z,102169.00
2018-04-28T17:34:13.718Z,102129.63
2018-04-28T17:35:52.765Z,102082.67
2018-04-28T17:37:32.827Z,101928.72
2018-04-28T17:39:09.455Z,101804.94
2018-04-28T17:40:46.826Z,101704.48
2018-04-28T17:42:23.280Z,101721.45
2018-04-28T17:43:59.642Z,101731.75
2018-04-28T17:45:36.342Z,101673.23
2018-04-28T17:47:14.059Z,101726.41
2018-04-28T17:48:51.569Z,101884.48
2018-04-28T17:50:28.026Z,101938.13
2018-04-28T17:52:04.493Z,101874.64
2018-04-28T17:53:41.385Z,101817.02
2018-04-28T17:55:25.475Z,101844.66
2018-04-28T17:57:01.936Z,101838.44
2018-04-28T17:58:38.402Z,101774.94
2018-04-28T18:00:18.542Z,101789.64
2018-04-28T18:01:56.308Z,101755.31
2018-04-28T18:03:33.494Z,101668.69
2018-04-28T18:05:11.569Z,101685.66
2018-04-28T18:06:49.445Z,101674.90
2018-04-28T18:08:27.896Z,101668.69
2018-04-28T18:10:04.943Z,101653.43
2018-04-28T18:11:41.663Z,101581.14
2018-04-28T18:13:19.296Z,101491.02
2018-04-28T18:14:56.686Z,101392.50
2018-04-28T18:16:33.653Z,101295.80
2018-04-28T18:18:10.113Z,101220.94
2018-04-28T18:19:48.133Z,101213.84
2018-04-28T18:21:25.318Z,101245.38
2018-04-28T18:23:01.728Z,101269.91
2018-04-28T18:24:39.689Z,101277.91
2018-04-28T18:26:16.812Z,101277.47
2018-04-28T18:27:53.563Z,101302.89
2018-04-28T18:29:31.761Z,101338.95
2018-04-28T18:31:10.743Z,101358.11
2018-04-28T18:32:58.846Z,101334.02
2018-04-28T18:34:37.571Z,101306.47
2018-04-28T18:36:14.897Z,101283.27
2018-04-28T18:37:52.177Z,101274.36
2018-04-28T18:39:29.150Z,101263.64
2018-04-28T18:41:06.344Z,101252.95